Terminal Aerodrome Forecast
Issued by NWS Charleston, WV

Current Version | Previous Version | Graphics & Text | Print | Product List | Glossary On
Versions: 1 2 3 4 5 6 7 8 9 10 11 12 13 14 15 16 17 18 19 20 21
603
FTUS41 KRLX 242343
TAFPKB
TAF
KPKB 242343Z 2500/2524 12008KT P6SM OVC060
     FM250300 16008KT 5SM SHRA OVC040
     FM250600 15005KT 5SM SHRA OVC022
     FM250900 20007KT 5SM SHRA BKN010=

USA.gov is the U.S. government's official web portal to all federal, state and local government web resources and services.